Time;durP1;ratioP1;P1;durP2;ratioP2;P2;SDS_P1;SDS_P2;PMS_P1;PMS_P2;Temp;Humidity;BMP_temperature;BMP_pressure;BME280_temperature;BME280_humidity;BME280_pressure;Samples;Min_cycle;Max_cycle;Signal;HPM_P1;HPM_P2
2022/06/15 00:01:02;;;;;;;2.90;0.80;;;;;;;10.12;74.95;99137.87;104830;1277;62182;-25
2022/06/15 00:03:30;;;;;;;1.90;1.00;;;;;;;10.66;72.81;99135.72;104774;1275;63000;-25
2022/06/15 00:06:11;;;;;;;2.00;0.90;;;;;;;10.68;72.34;99140.09;104712;1275;75607;-25
2022/06/15 00:08:38;;;;;;;2.60;1.10;;;;;;;10.50;72.56;99141.17;104462;1277;76987;-25
2022/06/15 00:11:12;;;;;;;2.80;0.90;;;;;;;10.29;73.04;99136.75;104617;1274;75133;-25
2022/06/15 00:13:39;;;;;;;0.90;0.80;;;;;;;10.07;73.95;99140.38;104504;1277;61811;-24
2022/06/15 00:16:06;;;;;;;3.00;1.00;;;;;;;9.87;74.37;99142.56;104869;1274;61821;-25
2022/06/15 00:18:34;;;;;;;0.70;0.60;;;;;;;9.69;75.23;99140.96;104892;1274;73389;-25
2022/06/15 00:21:02;;;;;;;1.80;0.90;;;;;;;10.09;74.89;99137.75;104729;1277;75695;-25
2022/06/15 00:23:30;;;;;;;5.40;0.90;;;;;;;10.58;73.02;99137.98;104761;1274;75720;-25
2022/06/15 00:25:57;;;;;;;2.00;0.80;;;;;;;10.62;72.41;99137.65;104731;1277;62061;-25
2022/06/15 00:28:26;;;;;;;1.90;1.10;;;;;;;10.45;72.65;99133.38;104809;1275;61049;-25
2022/06/15 00:30:53;;;;;;;1.70;0.90;;;;;;;10.24;73.28;99132.44;104745;1275;75533;-25
2022/06/15 00:33:27;;;;;;;1.00;0.90;;;;;;;10.00;73.89;99134.58;104654;1275;75947;-24
2022/06/15 00:35:59;;;;;;;2.30;1.00;;;;;;;9.78;74.94;99133.34;104680;1275;75369;-25
2022/06/15 00:38:40;;;;;;;1.80;0.70;;;;;;;9.63;75.29;99135.56;104605;1275;63672;-24
2022/06/15 00:41:12;;;;;;;1.40;0.90;;;;;;;10.13;74.70;99132.45;104612;1275;63131;-25
2022/06/15 00:43:51;;;;;;;1.00;0.80;;;;;;;10.60;73.05;99125.44;104598;1274;75868;-25
2022/06/15 00:46:21;;;;;;;0.80;0.70;;;;;;;10.58;72.45;99128.21;104574;1274;76152;-25
2022/06/15 00:49:02;;;;;;;1.50;0.90;;;;;;;10.33;72.93;99123.55;104499;1274;73402;-25
2022/06/15 00:51:29;;;;;;;0.90;0.80;;;;;;;10.05;73.82;99121.60;104483;1274;63109;-25
2022/06/15 00:53:57;;;;;;;2.50;1.10;;;;;;;9.78;74.81;99128.02;104455;1275;62031;-25
2022/06/15 00:56:24;;;;;;;1.80;1.10;;;;;;;9.53;75.33;99128.32;104445;1274;75506;-25
2022/06/15 00:58:53;;;;;;;2.70;0.50;;;;;;;9.33;76.09;99133.59;104716;1274;76049;-25
2022/06/15 01:01:20;;;;;;;4.00;1.10;;;;;;;9.73;75.92;99130.47;104640;1275;75349;-25
2022/06/15 01:03:49;;;;;;;2.40;1.00;;;;;;;10.20;74.35;99127.69;104537;1275;62805;-25
2022/06/15 01:06:29;;;;;;;1.20;0.80;;;;;;;10.21;73.80;99127.83;104708;1274;62202;-25
2022/06/15 01:09:19;;;;;;;2.80;0.90;;;;;;;9.95;74.39;99127.42;104686;1275;75770;-25
2022/06/15 01:11:49;;;;;;;1.20;1.00;;;;;;;9.61;75.35;99131.02;104713;1274;77040;-25
2022/06/15 01:14:32;;;;;;;2.20;1.40;;;;;;;9.33;76.48;99131.58;104690;1274;74193;-25
2022/06/15 01:16:59;;;;;;;0.80;0.70;;;;;;;9.10;77.73;99128.94;104543;1274;64441;-25
2022/06/15 01:19:36;;;;;;;3.60;1.00;;;;;;;9.49;77.09;99132.77;104626;1274;62884;-25
2022/06/15 01:22:22;;;;;;;0.90;0.80;;;;;;;9.93;75.18;99133.60;104593;1274;75428;-25
2022/06/15 01:25:31;;;;;;;1.70;1.10;;;;;;;9.88;74.96;99132.96;104629;1274;76760;-25
2022/06/15 01:28:18;;;;;;;1.50;1.00;;;;;;;9.57;75.89;99142.07;104638;1275;73423;-25
2022/06/15 01:31:09;;;;;;;2.30;1.20;;;;;;;9.30;76.72;99144.08;104730;1274;61102;-25
2022/06/15 01:33:50;;;;;;;2.70;1.40;;;;;;;9.06;77.42;99143.09;104526;1274;61765;-25
2022/06/15 01:36:44;;;;;;;3.10;0.80;;;;;;;8.89;78.20;99143.58;104498;1274;76312;-25
2022/06/15 01:39:19;;;;;;;2.00;0.80;;;;;;;9.49;77.26;99146.79;104726;1274;75908;-25
2022/06/15 01:42:09;;;;;;;1.80;1.10;;;;;;;9.90;75.10;99144.27;104701;1275;75382;-25
2022/06/15 01:44:38;;;;;;;2.30;1.30;;;;;;;9.80;75.21;99147.59;104614;1274;61135;-25
2022/06/15 01:47:09;;;;;;;1.90;1.20;;;;;;;9.56;75.92;99153.23;104482;1274;61834;-25
2022/06/15 01:49:43;;;;;;;2.30;1.20;;;;;;;9.32;77.10;99153.66;104526;1275;74646;-25
2022/06/15 01:52:12;;;;;;;3.80;1.30;;;;;;;9.11;77.85;99155.02;104706;1274;76687;-25
2022/06/15 01:54:43;;;;;;;1.40;0.80;;;;;;;8.93;78.51;99154.19;104723;1277;75487;-25
2022/06/15 01:57:10;;;;;;;0.80;0.70;;;;;;;9.34;77.88;99153.63;104586;1274;62104;-25
2022/06/15 01:59:43;;;;;;;1.80;1.30;;;;;;;9.83;75.83;99153.43;104700;1275;62901;-25
2022/06/15 02:02:32;;;;;;;1.20;1.10;;;;;;;9.85;75.23;99153.44;104789;1274;75500;-25
2022/06/15 02:05:18;;;;;;;3.70;1.40;;;;;;;9.60;75.77;99156.55;104700;1275;77366;-25
2022/06/15 02:07:58;;;;;;;1.40;1.30;;;;;;;9.31;76.65;99160.31;104719;1274;75456;-25
2022/06/15 02:10:41;;;;;;;4.20;1.50;;;;;;;9.02;77.31;99154.58;104436;1274;61747;-25
2022/06/15 02:13:30;;;;;;;2.10;0.80;;;;;;;8.82;78.56;99158.29;104563;1275;61059;-25
2022/06/15 02:16:11;;;;;;;3.40;0.90;;;;;;;9.34;77.41;99159.52;104382;1274;76014;-25
2022/06/15 02:18:40;;;;;;;2.30;1.30;;;;;;;9.74;75.70;99161.39;104653;1275;76959;-25
2022/06/15 02:21:10;;;;;;;3.40;1.20;;;;;;;9.70;75.77;99159.32;104422;1274;74427;-25
2022/06/15 02:23:38;;;;;;;2.10;1.10;;;;;;;9.53;75.76;99163.17;104530;1274;63190;-25
2022/06/15 02:26:06;;;;;;;5.00;1.70;;;;;;;9.39;76.46;99161.23;104732;1275;62988;-25
2022/06/15 02:28:36;;;;;;;1.90;1.20;;;;;;;9.38;76.65;99164.27;104619;1275;75648;-25
2022/06/15 02:31:03;;;;;;;1.50;0.80;;;;;;;9.42;76.73;99162.56;104487;1274;77625;-25
2022/06/15 02:33:32;;;;;;;2.60;0.90;;;;;;;10.04;75.43;99162.45;104568;1275;74374;-25
2022/06/15 02:36:04;;;;;;;3.80;1.20;;;;;;;10.67;72.96;99160.16;104527;1274;61752;-25
2022/06/15 02:38:31;;;;;;;2.20;1.20;;;;;;;10.69;72.33;99164.00;104634;1274;63479;-25
2022/06/15 02:40:59;;;;;;;2.60;1.20;;;;;;;10.61;72.53;99165.84;104697;1274;74856;-25
2022/06/15 02:43:28;;;;;;;2.80;1.50;;;;;;;10.60;72.51;99167.88;104674;1274;75481;-24
2022/06/15 02:45:57;;;;;;;1.70;1.60;;;;;;;10.59;72.29;99171.38;104372;1274;75382;-25
2022/06/15 02:48:32;;;;;;;7.10;1.80;;;;;;;10.61;72.72;99172.59;104438;1274;61952;-25
2022/06/15 02:51:17;;;;;;;1.60;0.80;;;;;;;10.68;72.49;99170.16;104336;1274;62008;-25
2022/06/15 02:53:49;;;;;;;1.00;0.90;;;;;;;11.48;70.59;99171.17;104638;1275;75834;-25
2022/06/15 02:56:17;;;;;;;2.50;1.50;;;;;;;12.16;68.35;99170.72;104272;1274;75159;-25
2022/06/15 02:58:47;;;;;;;4.70;1.50;;;;;;;12.37;67.18;99171.71;104518;1273;74253;-25
2022/06/15 03:01:14;;;;;;;4.00;1.30;;;;;;;12.37;67.02;99170.85;104375;1275;63090;-25
2022/06/15 03:03:43;;;;;;;3.90;1.80;;;;;;;12.34;67.21;99172.11;104643;1274;62167;-25
2022/06/15 03:06:16;;;;;;;3.90;1.70;;;;;;;12.29;67.22;99169.71;104637;1274;76069;-25
2022/06/15 03:08:44;;;;;;;2.50;1.90;;;;;;;12.23;67.40;99170.10;104325;1275;76714;-25
2022/06/15 03:11:24;;;;;;;1.90;1.40;;;;;;;12.19;67.83;99172.37;104559;1275;74286;-25
2022/06/15 03:13:52;;;;;;;2.50;1.00;;;;;;;12.19;68.20;99175.67;104463;1275;63768;-25
2022/06/15 03:16:20;;;;;;;2.60;1.40;;;;;;;12.83;66.83;99175.30;104697;1274;62799;-25
2022/06/15 03:18:48;;;;;;;1.60;1.30;;;;;;;13.63;64.72;99177.42;104623;1275;74768;-25
2022/06/15 03:21:16;;;;;;;2.10;1.30;;;;;;;13.89;63.27;99175.91;104678;1274;75579;-25
2022/06/15 03:23:43;;;;;;;2.50;1.50;;;;;;;13.85;63.42;99179.07;104413;1274;75795;-25
2022/06/15 03:26:12;;;;;;;4.20;1.40;;;;;;;13.73;63.39;99180.89;104631;1275;62134;-25
2022/06/15 03:28:40;;;;;;;1.60;1.40;;;;;;;13.59;63.94;99177.60;104494;1274;61930;-25
2022/06/15 03:31:10;;;;;;;1.80;1.50;;;;;;;13.46;64.73;99179.16;104619;1275;75581;-25
2022/06/15 03:33:38;;;;;;;2.40;1.70;;;;;;;13.37;65.33;99182.76;104370;1275;76985;-25
2022/06/15 03:36:08;;;;;;;2.70;1.70;;;;;;;13.27;65.83;99187.09;104595;1274;74478;-25
2022/06/15 03:38:36;;;;;;;2.50;1.40;;;;;;;13.22;66.03;99185.09;104592;1274;63364;-25
2022/06/15 03:41:24;;;;;;;4.10;1.50;;;;;;;13.20;66.57;99190.69;104532;1273;61972;-25
2022/06/15 03:43:53;;;;;;;1.80;1.20;;;;;;;13.22;66.96;99194.86;104590;1274;74222;-25
2022/06/15 03:46:23;;;;;;;5.20;1.10;;;;;;;13.84;65.43;99197.36;104631;1274;77158;-25
2022/06/15 03:48:54;;;;;;;2.00;1.30;;;;;;;14.31;63.76;99198.91;104670;1275;75424;-25
2022/06/15 03:51:21;;;;;;;8.00;1.70;;;;;;;14.43;63.37;99204.78;104625;1274;62790;-25
2022/06/15 03:53:57;;;;;;;3.30;1.40;;;;;;;14.27;63.53;99207.45;104607;1274;63294;-25
2022/06/15 03:56:40;;;;;;;5.20;1.40;;;;;;;14.06;64.22;99211.36;104642;1274;75570;-25
2022/06/15 03:59:10;;;;;;;4.80;1.80;;;;;;;13.93;65.33;99208.24;104758;1271;77382;-25
2022/06/15 04:01:39;;;;;;;3.80;1.60;;;;;;;13.72;66.16;99208.55;104798;1271;75394;-25
2022/06/15 04:04:06;;;;;;;2.20;1.30;;;;;;;13.78;66.82;99208.33;104836;1271;61951;-25
2022/06/15 04:06:35;;;;;;;7.80;1.90;;;;;;;13.82;66.85;99206.98;104746;1271;63353;-25
2022/06/15 04:09:03;;;;;;;2.00;1.40;;;;;;;13.84;67.38;99208.72;104742;1271;75174;-25
2022/06/15 04:14:32;;;;;;;2.00;1.40;;;;;;;13.74;66.13;99208.52;104802;1271;75658;-25
2022/06/15 04:17:22;;;;;;;;;;;;;;;13.71;66.62;99207.79;104589;1271;63525;-25
2022/06/15 04:22:56;;;;;;;4.10;1.60;;;;;;;14.79;63.36;99203.10;104769;1271;75694;-25
2022/06/15 04:25:23;;;;;;;2.80;1.50;;;;;;;14.89;63.01;99203.89;105099;1271;77153;-25
2022/06/15 04:27:51;;;;;;;6.40;1.60;;;;;;;14.81;63.44;99205.17;104748;1271;75299;-25
2022/06/15 04:30:18;;;;;;;7.00;1.30;;;;;;;14.73;63.46;99203.33;104784;1271;62340;-25
2022/06/15 04:32:51;;;;;;;5.10;1.40;;;;;;;14.55;63.95;99205.40;104832;1271;61087;-25
2022/06/15 04:35:24;;;;;;;7.00;1.50;;;;;;;14.54;64.47;99208.11;104693;1271;75605;-25
2022/06/15 04:37:52;;;;;;;3.30;1.50;;;;;;;14.28;64.57;99212.95;104806;1271;76755;-25
2022/06/15 04:40:24;;;;;;;2.50;1.30;;;;;;;14.22;65.60;99213.52;104787;1271;74441;-25
2022/06/15 04:42:52;;;;;;;3.90;1.30;;;;;;;14.32;64.58;99212.63;104721;1271;63081;-25
2022/06/15 04:45:19;;;;;;;3.70;1.20;;;;;;;14.37;64.94;99220.69;104670;1271;61601;-25
2022/06/15 04:48:06;;;;;;;2.70;1.30;;;;;;;14.40;64.23;99220.53;104737;1271;75628;-25
2022/06/15 04:50:33;;;;;;;4.20;1.30;;;;;;;14.45;63.55;99219.96;105011;1271;76815;-25
2022/06/15 04:53:01;;;;;;;6.20;1.50;;;;;;;14.36;64.96;99226.89;104799;1271;74322;-24
2022/06/15 04:55:29;;;;;;;5.10;1.90;;;;;;;14.11;64.56;99227.14;104801;1271;62827;-25
2022/06/15 04:57:59;;;;;;;4.60;1.70;;;;;;;13.82;66.03;99226.82;104811;1271;61959;-25
2022/06/15 05:00:30;;;;;;;4.20;1.30;;;;;;;13.65;66.50;99225.27;104923;1271;76574;-25
2022/06/15 05:02:58;;;;;;;1.70;1.30;;;;;;;13.55;66.79;99223.16;104692;1271;77100;-25
2022/06/15 05:05:27;;;;;;;2.80;1.40;;;;;;;13.44;66.84;99221.19;105003;1271;73627;-25
2022/06/15 05:07:55;;;;;;;4.30;1.00;;;;;;;13.51;67.45;99223.52;105064;1271;63788;-24
2022/06/15 05:10:23;;;;;;;4.40;1.20;;;;;;;14.30;65.79;99221.38;104641;1271;62839;-25
2022/06/15 05:12:52;;;;;;;2.50;1.00;;;;;;;15.17;63.70;99216.94;104513;1271;75456;-25
2022/06/15 05:15:22;;;;;;;5.10;1.20;;;;;;;15.46;61.21;99214.61;104579;1272;76967;-25
2022/06/15 05:17:52;;;;;;;4.00;1.50;;;;;;;15.50;61.21;99213.20;104853;1271;74076;-25
2022/06/15 05:20:20;;;;;;;3.40;1.50;;;;;;;15.73;59.77;99214.05;104852;1271;61648;-25
2022/06/15 05:22:56;;;;;;;;;;;;;;;15.85;60.28;99216.34;104893;1271;63022;-25
2022/06/15 05:25:42;;;;;;;4.40;1.70;;;;;;;15.82;59.78;99215.99;104841;1271;75240;-25
2022/06/15 05:28:10;;;;;;;4.60;2.00;;;;;;;15.56;59.96;99215.20;104818;1271;77151;-25
2022/06/15 05:30:39;;;;;;;4.10;1.70;;;;;;;15.72;60.08;99219.25;104857;1271;73248;-25
2022/06/15 05:33:09;;;;;;;3.80;1.60;;;;;;;15.64;59.42;99216.39;104712;1271;61339;-25
2022/06/15 05:35:36;;;;;;;3.00;1.50;;;;;;;15.67;60.39;99217.69;104794;1271;62767;-24
2022/06/15 05:38:04;;;;;;;5.90;1.70;;;;;;;15.50;59.20;99217.73;105092;1271;76046;-24
2022/06/15 05:40:34;;;;;;;3.30;1.70;;;;;;;15.47;60.57;99215.05;104740;1271;76781;-24
2022/06/15 05:43:01;;;;;;;4.60;1.90;;;;;;;15.64;60.27;99214.11;104802;1271;75188;-25
2022/06/15 05:45:29;;;;;;;4.80;1.70;;;;;;;15.75;59.96;99217.67;104783;1271;61143;-25
2022/06/15 05:47:59;;;;;;;6.70;2.10;;;;;;;15.80;60.38;99222.17;104729;1271;62167;-25
2022/06/15 05:50:36;;;;;;;4.70;1.90;;;;;;;15.73;59.21;99224.41;104808;1271;74466;-24
2022/06/15 05:53:11;;;;;;;5.30;1.60;;;;;;;15.84;58.35;99228.56;104773;1271;77479;-25
2022/06/15 05:55:39;;;;;;;3.90;1.80;;;;;;;15.96;58.89;99230.19;104773;1271;74099;-25
2022/06/15 05:58:06;;;;;;;2.20;1.30;;;;;;;16.03;58.25;99234.39;104901;1271;63165;-25
2022/06/15 06:00:33;;;;;;;5.60;1.60;;;;;;;16.07;56.79;99236.46;104889;1271;61681;-25
2022/06/15 06:03:01;;;;;;;4.90;1.70;;;;;;;16.29;59.06;99237.58;104740;1271;76427;-25
2022/06/15 06:05:28;;;;;;;2.80;1.70;;;;;;;16.43;57.01;99236.48;104784;1271;76912;-24
2022/06/15 06:07:56;;;;;;;3.50;1.60;;;;;;;16.43;56.04;99234.98;104712;1271;75420;-24
2022/06/15 06:10:24;;;;;;;6.50;1.40;;;;;;;16.18;56.52;99237.83;104821;1271;62918;-25
2022/06/15 06:12:51;;;;;;;3.30;1.90;;;;;;;16.23;55.62;99232.56;104782;1271;61894;-25
2022/06/15 06:15:19;;;;;;;5.00;1.60;;;;;;;16.28;56.27;99238.40;104858;1271;76901;-25
2022/06/15 06:17:46;;;;;;;2.10;1.40;;;;;;;16.41;55.85;99235.59;104723;1272;77026;-25
2022/06/15 06:20:13;;;;;;;7.10;1.50;;;;;;;16.40;53.65;99234.45;104770;1271;73834;-24
2022/06/15 06:22:41;;;;;;;4.70;1.60;;;;;;;16.49;54.03;99232.70;104647;1271;61849;-25
2022/06/15 06:25:08;;;;;;;3.20;1.60;;;;;;;16.51;54.31;99234.27;104803;1271;61342;-25
2022/06/15 06:27:36;;;;;;;16.80;2.30;;;;;;;16.72;54.77;99232.58;104862;1271;76409;-25
2022/06/15 06:30:04;;;;;;;3.70;1.40;;;;;;;16.91;54.92;99232.36;104879;1271;77532;-25
2022/06/15 06:32:31;;;;;;;2.80;1.50;;;;;;;17.05;53.84;99229.60;104881;1271;75370;-24
2022/06/15 06:34:59;;;;;;;4.00;1.80;;;;;;;16.98;52.21;99231.16;104708;1271;61181;-24
2022/06/15 06:37:33;;;;;;;10.40;2.50;;;;;;;17.00;51.22;99233.34;104795;1271;62838;-24
2022/06/15 06:40:01;;;;;;;3.80;2.00;;;;;;;16.98;53.53;99232.67;104690;1271;75281;-25
2022/06/15 06:42:28;;;;;;;2.80;1.30;;;;;;;17.10;51.81;99229.79;104705;1272;75570;-25
2022/06/15 06:44:55;;;;;;;3.00;1.20;;;;;;;17.17;50.46;99223.52;104780;1271;74358;-25
2022/06/15 06:47:22;;;;;;;2.70;1.60;;;;;;;17.02;52.15;99230.25;104773;1269;62632;-24
2022/06/15 06:49:50;;;;;;;4.80;1.90;;;;;;;17.26;51.67;99222.94;104771;1271;62901;-24
2022/06/15 06:52:17;;;;;;;3.20;1.70;;;;;;;17.26;51.07;99219.45;104658;1271;75598;-25
2022/06/15 06:54:44;;;;;;;6.30;1.60;;;;;;;17.05;50.47;99227.19;104843;1271;76409;-25
2022/06/15 06:57:12;;;;;;;4.30;1.30;;;;;;;17.02;51.51;99230.70;104792;1271;74535;-25
2022/06/15 06:59:40;;;;;;;3.60;1.10;;;;;;;17.32;50.80;99223.54;104736;1271;61999;-25
2022/06/15 07:02:09;;;;;;;4.10;1.20;;;;;;;17.17;49.45;99229.48;104826;1271;62050;-25
2022/06/15 07:04:37;;;;;;;5.70;1.70;;;;;;;17.26;50.52;99226.46;104750;1271;76377;-24
2022/06/15 07:07:04;;;;;;;4.10;1.50;;;;;;;17.32;51.54;99230.41;104770;1272;76724;-25
2022/06/15 07:09:32;;;;;;;4.40;1.10;;;;;;;17.37;50.50;99228.50;105193;1271;75263;-25
2022/06/15 07:11:59;;;;;;;4.80;0.90;;;;;;;17.15;51.30;99234.65;104860;1271;62089;-25
2022/06/15 07:14:26;;;;;;;4.20;1.30;;;;;;;17.19;50.99;99231.40;104790;1271;61715;-25
2022/06/15 07:16:53;;;;;;;4.90;1.50;;;;;;;17.17;51.51;99229.22;104737;1271;76659;-24
2022/06/15 07:19:21;;;;;;;3.10;1.40;;;;;;;16.95;51.15;99236.21;104713;1271;76040;-25
2022/06/15 07:21:48;;;;;;;2.70;1.20;;;;;;;17.14;51.57;99230.57;104770;1271;74268;-25
2022/06/15 07:24:15;;;;;;;4.10;1.40;;;;;;;17.20;50.71;99229.86;104759;1271;61757;-24
2022/06/15 07:26:45;;;;;;;1.00;0.90;;;;;;;16.97;51.36;99234.41;104767;1271;63345;-25
2022/06/15 07:29:15;;;;;;;4.20;1.40;;;;;;;16.71;49.80;99231.88;104735;1271;76549;-25
2022/06/15 07:31:44;;;;;;;3.30;1.40;;;;;;;16.49;51.15;99235.48;104613;1271;77494;-25
2022/06/15 07:34:11;;;;;;;2.90;1.10;;;;;;;16.43;51.72;99232.12;104677;1271;75413;-24
2022/06/15 07:36:46;;;;;;;4.20;1.40;;;;;;;16.59;52.27;99233.61;104632;1271;61940;-25
2022/06/15 07:39:16;;;;;;;5.70;1.40;;;;;;;16.87;50.22;99236.67;104721;1271;63044;-25
2022/06/15 07:41:43;;;;;;;3.20;1.60;;;;;;;17.15;51.43;99233.72;104695;1271;75516;-25
2022/06/15 07:44:11;;;;;;;5.50;1.20;;;;;;;17.52;49.29;99227.25;104778;1271;77045;-25
2022/06/15 07:46:38;;;;;;;6.30;1.10;;;;;;;17.61;48.44;99227.66;104771;1271;75385;-25
2022/06/15 07:51:54;;;;;;;6.80;1.10;;;;;;;18.11;48.31;99229.52;104906;1271;62105;-25
2022/06/15 07:54:22;;;;;;;5.90;1.60;;;;;;;18.34;48.13;99226.91;104816;1271;76674;-25
2022/06/15 07:56:50;;;;;;;3.20;1.20;;;;;;;18.45;47.40;99223.14;104684;1271;76756;-26
2022/06/15 07:59:18;;;;;;;1.10;0.80;;;;;;;17.79;47.80;99227.95;104662;1271;74074;-25
2022/06/15 08:01:45;;;;;;;1.40;0.80;;;;;;;17.03;48.31;99238.11;104962;1271;61729;-25
2022/06/15 08:04:13;;;;;;;2.20;0.90;;;;;;;16.94;49.40;99239.45;104705;1272;61117;-25
2022/06/15 08:06:43;;;;;;;2.00;0.90;;;;;;;17.30;48.91;99233.63;105078;1271;74805;-25
2022/06/15 08:09:13;;;;;;;18.30;1.30;;;;;;;17.86;48.77;99233.73;104873;1271;76030;-25
2022/06/15 08:12:11;;;;;;;3.70;0.90;;;;;;;18.27;48.11;99236.80;104709;1271;75477;-25
2022/06/15 08:14:29;;;;;;;1.00;0.70;;;;;;;18.62;48.04;99232.94;104653;1271;61812;-25
2022/06/15 08:16:57;;;;;;;2.60;1.00;;;;;;;18.54;46.91;99239.95;104761;1271;62022;-25
2022/06/15 08:19:24;;;;;;;5.60;1.00;;;;;;;18.21;45.64;99243.66;104685;1271;76627;-25
2022/06/15 08:21:51;;;;;;;1.40;0.60;;;;;;;17.76;47.55;99248.30;104794;1271;77122;-23
2022/06/15 08:24:21;;;;;;;2.20;0.70;;;;;;;17.64;46.95;99250.48;104749;1271;75375;-25
2022/06/15 08:26:48;;;;;;;0.90;0.70;;;;;;;17.34;48.26;99245.08;104716;1271;62029;-25
2022/06/15 08:29:16;;;;;;;1.60;0.60;;;;;;;17.40;49.22;99245.30;105094;1271;63114;-25
2022/06/15 08:31:43;;;;;;;1.30;0.70;;;;;;;17.97;46.43;99240.64;104801;1271;77000;-24
2022/06/15 08:34:11;;;;;;;2.00;0.70;;;;;;;18.41;45.42;99240.88;104619;1271;76862;-25
2022/06/15 08:36:38;;;;;;;1.40;0.70;;;;;;;18.74;45.70;99234.45;105033;1271;75530;-25
2022/06/15 08:39:06;;;;;;;1.20;0.70;;;;;;;18.85;45.82;99242.23;105098;1271;63075;-25
2022/06/15 08:41:36;;;;;;;5.20;0.60;;;;;;;18.15;44.10;99240.10;105099;1271;63111;-25
2022/06/15 08:44:26;;;;;;;2.90;0.70;;;;;;;17.97;45.77;99245.39;105116;1271;75634;-25
2022/06/15 08:47:28;;;;;;;1.90;0.60;;;;;;;18.47;44.29;99237.22;105052;1271;76993;-25
2022/06/15 08:50:08;;;;;;;3.60;0.70;;;;;;;18.51;44.70;99237.86;105109;1271;74090;-25
2022/06/15 08:52:43;;;;;;;2.80;1.00;;;;;;;18.17;45.21;99251.70;104860;1271;63365;-25
2022/06/15 08:55:36;;;;;;;3.70;0.80;;;;;;;18.27;46.26;99251.24;105036;1271;61896;-25
2022/06/15 08:58:19;;;;;;;2.40;0.70;;;;;;;18.50;46.45;99247.52;104891;1271;76527;-25
2022/06/15 09:00:46;;;;;;;2.50;0.70;;;;;;;17.88;45.33;99246.18;104890;1271;76032;-25
2022/06/15 09:03:27;;;;;;;1.90;0.50;;;;;;;17.50;45.26;99245.48;105088;1271;75179;-24
2022/06/15 09:06:16;;;;;;;1.70;1.00;;;;;;;17.48;45.85;99247.68;104853;1271;61830;-24
2022/06/15 09:08:55;;;;;;;3.80;0.70;;;;;;;18.22;44.44;99245.95;104659;1271;63044;-25
2022/06/15 09:11:51;;;;;;;4.90;0.70;;;;;;;18.86;44.26;99237.04;104749;1271;75435;-25
2022/06/15 09:14:39;;;;;;;3.80;0.60;;;;;;;19.04;44.21;99241.01;104791;1271;74721;-24
2022/06/15 09:17:16;;;;;;;2.10;0.70;;;;;;;19.14;43.69;99234.41;104738;1271;75349;-25
2022/06/15 09:19:53;;;;;;;1.70;0.60;;;;;;;18.44;42.64;99243.56;104765;1271;61727;-25
2022/06/15 09:22:22;;;;;;;1.30;0.80;;;;;;;18.24;44.81;99252.96;104886;1271;61987;-25
2022/06/15 09:25:11;;;;;;;1.80;0.40;;;;;;;18.42;43.80;99248.71;104850;1271;76659;-25
2022/06/15 09:27:46;;;;;;;3.60;0.70;;;;;;;18.91;44.07;99248.20;104688;1271;77055;-25
2022/06/15 09:30:18;;;;;;;3.50;0.70;;;;;;;19.58;42.57;99244.25;104601;1271;75437;-25
2022/06/15 09:33:18;;;;;;;4.50;0.60;;;;;;;19.85;42.86;99240.61;104653;1271;62006;-25
2022/06/15 09:35:51;;;;;;;1.90;0.80;;;;;;;20.20;42.55;99233.38;104640;1271;61930;-25
2022/06/15 09:38:19;;;;;;;14.10;1.10;;;;;;;20.00;42.25;99243.19;104639;1272;76726;-24
2022/06/15 09:40:55;;;;;;;2.70;0.70;;;;;;;19.94;42.46;99244.32;104784;1271;75279;-25
2022/06/15 09:43:26;;;;;;;1.10;0.60;;;;;;;19.84;42.07;99246.02;104674;1271;74237;-25
2022/06/15 09:46:14;;;;;;;2.40;0.70;;;;;;;20.01;40.23;99241.95;104753;1271;63814;-25
2022/06/15 09:48:55;;;;;;;1.70;0.80;;;;;;;19.97;40.65;99241.33;104714;1271;63055;-24
2022/06/15 09:51:49;;;;;;;1.40;0.70;;;;;;;20.16;39.84;99237.88;104858;1272;75725;-25
2022/06/15 09:54:41;;;;;;;6.30;0.80;;;;;;;19.75;41.01;99249.36;104738;1271;76822;-25
2022/06/15 09:57:10;;;;;;;3.30;0.80;;;;;;;18.67;41.81;99246.70;104766;1271;74426;-25
2022/06/15 09:59:37;;;;;;;2.50;0.60;;;;;;;18.04;42.23;99256.74;104663;1271;61902;-25
2022/06/15 10:02:06;;;;;;;3.30;0.60;;;;;;;17.79;43.05;99256.77;104780;1271;61728;-25
2022/06/15 10:04:35;;;;;;;1.60;0.60;;;;;;;17.99;41.82;99254.14;104682;1272;75817;-24
2022/06/15 10:07:16;;;;;;;13.30;1.30;;;;;;;18.74;42.33;99251.00;104649;1271;76997;-25
2022/06/15 10:09:49;;;;;;;2.00;0.70;;;;;;;19.33;40.84;99252.25;104615;1271;75510;-25
2022/06/15 10:15:21;;;;;;;1.60;0.60;;;;;;;20.67;38.83;99241.77;104776;1271;62260;-25
2022/06/15 10:17:57;;;;;;;1.50;0.80;;;;;;;20.99;39.93;99233.15;104692;1271;76600;-24
2022/06/15 10:20:31;;;;;;;2.30;0.90;;;;;;;20.07;40.98;99234.41;104868;1271;75724;-25
2022/06/15 10:23:01;;;;;;;1.60;0.60;;;;;;;19.65;42.15;99243.91;104686;1271;74392;-24
2022/06/15 10:25:31;;;;;;;1.70;0.80;;;;;;;19.21;40.87;99244.98;104629;1271;62795;-23
2022/06/15 10:28:14;;;;;;;3.50;0.60;;;;;;;19.04;42.25;99243.38;104761;1271;63398;-23
2022/06/15 10:30:59;;;;;;;0.90;0.60;;;;;;;19.76;39.86;99233.44;104716;1271;76570;-23
2022/06/15 10:33:48;;;;;;;1.30;0.60;;;;;;;20.27;39.84;99219.55;104625;1271;77233;-23
2022/06/15 10:36:22;;;;;;;0.70;0.50;;;;;;;20.25;39.76;99221.84;104824;1271;75455;-23
2022/06/15 10:38:57;;;;;;;1.50;0.70;;;;;;;20.21;38.75;99224.77;104677;1271;61771;-23
2022/06/15 10:41:45;;;;;;;1.90;0.60;;;;;;;20.10;38.28;99221.20;104972;1271;63052;-23
2022/06/15 10:44:14;;;;;;;2.30;0.60;;;;;;;20.49;37.37;99219.69;104651;1271;76578;-23
2022/06/15 10:47:18;;;;;;;1.20;0.50;;;;;;;20.61;36.45;99221.95;104742;1271;76981;-23
2022/06/15 10:49:59;;;;;;;1.90;0.80;;;;;;;20.81;35.71;99224.21;104558;1271;74550;-24
2022/06/15 10:52:35;;;;;;;3.20;0.50;;;;;;;21.05;36.82;99220.88;104628;1271;61668;-23
2022/06/15 11:04:20;;;;;;;2.80;0.60;;;;;;;20.71;34.24;99215.47;104815;1271;75380;-23
2022/06/15 11:07:07;;;;;;;2.50;0.50;;;;;;;20.56;36.52;99219.45;104778;1274;62840;-23
2022/06/15 11:09:41;;;;;;;1.10;0.50;;;;;;;20.86;36.15;99221.83;104868;1271;61964;-23
2022/06/15 11:12:21;;;;;;;1.30;0.60;;;;;;;20.73;36.84;99217.20;104764;1271;75708;-23
2022/06/15 11:15:01;;;;;;;1.90;0.60;;;;;;;20.72;37.50;99216.42;104945;1271;76909;-24
2022/06/15 11:20:40;;;;;;;0.60;0.40;;;;;;;21.17;36.58;99207.67;104807;1271;62953;-23
2022/06/15 11:23:14;;;;;;;1.50;0.70;;;;;;;21.38;36.42;99204.75;104888;1271;63164;-26
2022/06/15 11:29:02;;;;;;;1.40;0.50;;;;;;;20.30;37.63;99213.84;104633;1271;76052;-25
2022/06/15 11:31:50;;;;;;;3.00;0.80;;;;;;;19.62;39.03;99217.11;104773;1271;74485;-25
2022/06/15 11:34:20;;;;;;;1.70;0.60;;;;;;;19.07;40.24;99221.29;104598;1272;389504;-25
2022/06/15 11:36:57;;;;;;;3.20;0.60;;;;;;;18.84;41.81;99224.04;104682;1271;61625;-25
2022/06/15 11:39:41;;;;;;;1.90;0.70;;;;;;;18.59;42.65;99223.85;104756;1271;75520;-25
2022/06/15 11:42:10;;;;;;;1.30;0.60;;;;;;;18.54;43.36;99226.64;104678;1271;76119;-25
2022/06/15 11:44:40;;;;;;;1.50;0.60;;;;;;;18.63;42.44;99227.98;104644;1271;75122;-25
2022/06/15 11:47:16;;;;;;;2.60;0.60;;;;;;;19.09;42.95;99223.00;104693;1271;61784;-24
2022/06/15 11:49:43;;;;;;;1.00;0.50;;;;;;;19.57;42.42;99215.37;104757;1272;62758;-25
2022/06/15 11:52:22;;;;;;;1.10;0.60;;;;;;;20.17;39.31;99214.31;104951;1271;74209;-25
2022/06/15 11:54:49;;;;;;;1.10;0.40;;;;;;;20.64;37.37;99206.31;104935;1271;75932;-25
2022/06/15 11:58:12;;;;;;;0.40;0.40;;;;;;;20.65;36.73;99204.58;105001;1271;75481;-25
2022/06/15 12:01:18;;;;;;;2.60;0.60;;;;;;;19.55;38.75;99200.40;104441;1280;61587;-24
2022/06/15 12:04:08;;;;;;;0.50;0.40;;;;;;;19.96;39.32;99205.27;104530;1280;63066;-24
2022/06/15 12:07:00;;;;;;;12.00;1.50;;;;;;;20.68;40.15;99207.10;104154;1280;75301;-23
2022/06/15 12:09:39;;;;;;;3.20;0.70;;;;;;;20.83;38.46;99202.95;104204;1280;76842;-24
2022/06/15 12:15:19;;;;;;;1.30;0.60;;;;;;;20.14;38.90;99206.98;104414;1279;61789;-24
2022/06/15 12:17:54;;;;;;;2.50;0.70;;;;;;;19.91;40.80;99214.44;104513;1280;62876;-24
2022/06/15 12:20:22;;;;;;;1.80;0.70;;;;;;;19.76;41.09;99211.23;104313;1279;75630;-24
2022/06/15 12:23:01;;;;;;;1.60;0.50;;;;;;;19.55;40.75;99205.54;104193;1280;76026;-23
2022/06/15 12:25:37;;;;;;;1.60;0.70;;;;;;;19.46;40.95;99204.78;104240;1280;75452;-23